aviador You're here:

RCMQ Decoded Metar

CHINGCHUAKANG in TAIWAN
Report Time2018-05-25 20:00:00
UTC Time2018-05-25 20:37:33
Flight Rules vfr VFR
Wind170° at 09 kt
W.Decomp.*RWY 18: 8.9 kt HW 1.1 kt LCW
W.Rank170° ranks 8
Current wind is above 170° avg. (5.9)
Visibility9999 m
Phenomena:N/A
Clouds:Few 012 Hf
Expected CloudBase > 400 ft AGL from Temp-Dew spread
CeilingNone
Temp26°C (ISA +11)
Dew Point25°C (94% RH)
QNH1008 hPa
Density Alt1,873 ft
Elevation16 ft
Report Wrong Elevation
Raw Report
RCMQ 252000Z 17009KT 9999 FEW012 26/25 Q1008 RMK A2979=

Extra information for RCMQ:More info

Metar Taf Metar & Taf Last 4 Metars F.Rules Stats Wind Profile Meteogram Temp Stats Airport Information Weather charts Add Link Nearby VenuesMetar ALERT Operation Metar Decoded Social comments